sensor_id;sensor_type;location;lat;lon;timestamp;pressure;altitude;pressure_sealevel;temperature;humidity
34297;BME280;20564;42.902;25.336;2022-11-15T00:01:33;97915.31;;;8.07;100.00
34297;BME280;20564;42.902;25.336;2022-11-15T00:04:10;97908.41;;;8.06;100.00
34297;BME280;20564;42.902;25.336;2022-11-15T00:06:38;97905.66;;;8.07;100.00
34297;BME280;20564;42.902;25.336;2022-11-15T00:09:06;97906.50;;;8.08;100.00
34297;BME280;20564;42.902;25.336;2022-11-15T00:11:34;97906.50;;;8.08;100.00
34297;BME280;20564;42.902;25.336;2022-11-15T00:14:01;97903.69;;;8.11;100.00
34297;BME280;20564;42.902;25.336;2022-11-15T00:16:33;97905.03;;;8.04;100.00
34297;BME280;20564;42.902;25.336;2022-11-15T00:19:05;97904.34;;;8.02;100.00
34297;BME280;20564;42.902;25.336;2022-11-15T00:21:32;97900.75;;;8.03;100.00
34297;BME280;20564;42.902;25.336;2022-11-15T00:23:59;97904.41;;;8.00;100.00
34297;BME280;20564;42.902;25.336;2022-11-15T00:26:26;97897.31;;;8.02;100.00
34297;BME280;20564;42.902;25.336;2022-11-15T00:28:54;97901.09;;;7.98;100.00
34297;BME280;20564;42.902;25.336;2022-11-15T00:31:21;97893.22;;;7.98;100.00
34297;BME280;20564;42.902;25.336;2022-11-15T00:33:50;97893.31;;;7.96;100.00
34297;BME280;20564;42.902;25.336;2022-11-15T00:36:18;97891.31;;;8.00;100.00
34297;BME280;20564;42.902;25.336;2022-11-15T00:38:45;97887.84;;;8.00;100.00
34297;BME280;20564;42.902;25.336;2022-11-15T00:41:13;97887.66;;;8.03;100.00
34297;BME280;20564;42.902;25.336;2022-11-15T00:43:43;97885.16;;;8.01;100.00
34297;BME280;20564;42.902;25.336;2022-11-15T00:46:11;97877.91;;;8.05;100.00
34297;BME280;20564;42.902;25.336;2022-11-15T00:48:38;97881.25;;;8.07;100.00
34297;BME280;20564;42.902;25.336;2022-11-15T00:51:06;97876.75;;;8.09;100.00
34297;BME280;20564;42.902;25.336;2022-11-15T00:53:33;97876.84;;;8.07;100.00
34297;BME280;20564;42.902;25.336;2022-11-15T00:56:00;97872.41;;;8.08;100.00
34297;BME280;20564;42.902;25.336;2022-11-15T00:58:28;97863.50;;;8.10;100.00
34297;BME280;20564;42.902;25.336;2022-11-15T01:00:56;97871.03;;;8.15;100.00
34297;BME280;20564;42.902;25.336;2022-11-15T01:03:23;97879.88;;;8.14;100.00
34297;BME280;20564;42.902;25.336;2022-11-15T01:05:50;97869.59;;;8.11;100.00
34297;BME280;20564;42.902;25.336;2022-11-15T01:08:17;97869.81;;;8.08;100.00
34297;BME280;20564;42.902;25.336;2022-11-15T01:10:45;97877.38;;;8.12;100.00
34297;BME280;20564;42.902;25.336;2022-11-15T01:13:12;97859.84;;;8.13;100.00
34297;BME280;20564;42.902;25.336;2022-11-15T01:15:40;97865.81;;;8.15;100.00
34297;BME280;20564;42.902;25.336;2022-11-15T01:18:08;97863.81;;;8.18;100.00
34297;BME280;20564;42.902;25.336;2022-11-15T01:20:44;97862.25;;;8.16;100.00
34297;BME280;20564;42.902;25.336;2022-11-15T01:23:11;97853.66;;;8.14;100.00
34297;BME280;20564;42.902;25.336;2022-11-15T01:25:38;97850.06;;;8.15;100.00
34297;BME280;20564;42.902;25.336;2022-11-15T01:28:06;97851.03;;;8.14;100.00
34297;BME280;20564;42.902;25.336;2022-11-15T01:30:35;97853.03;;;8.10;100.00
34297;BME280;20564;42.902;25.336;2022-11-15T01:33:03;97854.69;;;8.11;100.00
34297;BME280;20564;42.902;25.336;2022-11-15T01:35:30;97858.38;;;8.09;100.00
34297;BME280;20564;42.902;25.336;2022-11-15T01:37:57;97857.66;;;8.07;100.00
34297;BME280;20564;42.902;25.336;2022-11-15T01:40:24;97854.06;;;8.08;100.00
34297;BME280;20564;42.902;25.336;2022-11-15T01:42:51;97857.66;;;8.07;100.00
34297;BME280;20564;42.902;25.336;2022-11-15T01:45:19;97852.81;;;8.01;100.00
34297;BME280;20564;42.902;25.336;2022-11-15T01:47:50;97858.31;;;7.97;100.00
34297;BME280;20564;42.902;25.336;2022-11-15T01:50:27;97859.97;;;7.98;100.00
34297;BME280;20564;42.902;25.336;2022-11-15T01:52:57;97859.97;;;7.98;100.00
34297;BME280;20564;42.902;25.336;2022-11-15T01:55:28;97859.97;;;7.98;100.00
34297;BME280;20564;42.902;25.336;2022-11-15T01:57:59;97850.94;;;8.03;100.00
34297;BME280;20564;42.902;25.336;2022-11-15T02:00:27;97850.53;;;8.09;100.00
34297;BME280;20564;42.902;25.336;2022-11-15T02:02:55;97850.31;;;7.99;100.00
34297;BME280;20564;42.902;25.336;2022-11-15T02:05:23;97861.06;;;7.83;100.00
34297;BME280;20564;42.902;25.336;2022-11-15T02:07:51;97844.06;;;7.76;100.00
34297;BME280;20564;42.902;25.336;2022-11-15T02:10:21;97842.28;;;7.77;100.00
34297;BME280;20564;42.902;25.336;2022-11-15T02:12:49;97842.91;;;7.80;100.00
34297;BME280;20564;42.902;25.336;2022-11-15T02:15:17;97851.59;;;7.81;100.00
34297;BME280;20564;42.902;25.336;2022-11-15T02:31:34;97834.00;;;7.70;100.00
34297;BME280;20564;42.902;25.336;2022-11-15T02:37:02;97834.44;;;7.77;100.00
34297;BME280;20564;42.902;25.336;2022-11-15T02:42:50;97828.56;;;7.73;100.00
34297;BME280;20564;42.902;25.336;2022-11-15T02:45:48;97828.78;;;7.70;100.00
34297;BME280;20564;42.902;25.336;2022-11-15T02:48:21;97820.91;;;7.70;100.00
34297;BME280;20564;42.902;25.336;2022-11-15T02:50:52;97827.53;;;7.76;100.00
34297;BME280;20564;42.902;25.336;2022-11-15T02:53:24;97816.28;;;7.73;100.00
34297;BME280;20564;42.902;25.336;2022-11-15T02:55:53;97828.56;;;7.73;100.00
34297;BME280;20564;42.902;25.336;2022-11-15T03:04:02;97816.16;;;7.75;100.00
34297;BME280;20564;42.902;25.336;2022-11-15T03:06:49;97822.91;;;7.79;100.00
34297;BME280;20564;42.902;25.336;2022-11-15T03:09:36;97819.53;;;7.77;100.00
34297;BME280;20564;42.902;25.336;2022-11-15T03:12:15;97810.09;;;7.87;100.00
34297;BME280;20564;42.902;25.336;2022-11-15T03:14:58;97811.59;;;7.66;100.00
34297;BME280;20564;42.902;25.336;2022-11-15T03:17:37;97809.19;;;7.63;100.00
34297;BME280;20564;42.902;25.336;2022-11-15T03:20:07;97815.38;;;7.62;100.00
34297;BME280;20564;42.902;25.336;2022-11-15T03:22:39;97809.38;;;7.60;100.00
34297;BME280;20564;42.902;25.336;2022-11-15T03:25:10;97817.03;;;7.63;100.00
34297;BME280;20564;42.902;25.336;2022-11-15T03:27:44;97818.50;;;7.67;100.00
34297;BME280;20564;42.902;25.336;2022-11-15T03:30:14;97815.66;;;7.70;100.00
34297;BME280;20564;42.902;25.336;2022-11-15T03:32:47;97818.19;;;7.71;100.00
34297;BME280;20564;42.902;25.336;2022-11-15T03:35:19;97811.78;;;7.63;100.00
34297;BME280;20564;42.902;25.336;2022-11-15T03:38:17;97809.94;;;7.65;100.00
34297;BME280;20564;42.902;25.336;2022-11-15T03:41:01;97808.84;;;7.67;100.00
34297;BME280;20564;42.902;25.336;2022-11-15T03:43:44;97799.22;;;7.68;100.00
34297;BME280;20564;42.902;25.336;2022-11-15T03:49:22;97797.13;;;7.73;100.00
34297;BME280;20564;42.902;25.336;2022-11-15T03:51:51;97791.03;;;7.72;100.00
34297;BME280;20564;42.902;25.336;2022-11-15T03:54:18;97792.00;;;7.71;100.00
34297;BME280;20564;42.902;25.336;2022-11-15T03:56:46;97781.59;;;7.70;100.00
34297;BME280;20564;42.902;25.336;2022-11-15T03:59:13;97783.50;;;7.68;100.00
34297;BME280;20564;42.902;25.336;2022-11-15T04:01:40;97785.19;;;7.69;100.00
34297;BME280;20564;42.902;25.336;2022-11-15T04:04:07;97793.75;;;7.71;100.00
34297;BME280;20564;42.902;25.336;2022-11-15T04:06:34;97784.13;;;7.71;100.00
34297;BME280;20564;42.902;25.336;2022-11-15T04:09:04;97784.44;;;7.67;100.00
34297;BME280;20564;42.902;25.336;2022-11-15T04:11:31;97786.84;;;7.70;100.00
34297;BME280;20564;42.902;25.336;2022-11-15T04:13:59;97785.38;;;7.66;100.00
34297;BME280;20564;42.902;25.336;2022-11-15T04:16:26;97787.06;;;7.67;100.00
34297;BME280;20564;42.902;25.336;2022-11-15T04:18:53;97783.50;;;7.68;100.00
34297;BME280;20564;42.902;25.336;2022-11-15T04:21:42;97778.28;;;7.68;100.00
34297;BME280;20564;42.902;25.336;2022-11-15T04:24:28;97779.09;;;7.68;100.00
34297;BME280;20564;42.902;25.336;2022-11-15T04:26:55;97780.16;;;7.66;100.00
34297;BME280;20564;42.902;25.336;2022-11-15T04:29:22;97772.50;;;7.63;100.00
34297;BME280;20564;42.902;25.336;2022-11-15T04:32:03;97780.66;;;7.71;100.00
34297;BME280;20564;42.902;25.336;2022-11-15T04:34:31;97771.88;;;7.72;100.00
34297;BME280;20564;42.902;25.336;2022-11-15T04:36:59;97776.16;;;7.73;100.00
34297;BME280;20564;42.902;25.336;2022-11-15T04:39:42;97772.16;;;7.67;100.00
34297;BME280;20564;42.902;25.336;2022-11-15T04:44:57;97772.41;;;7.64;100.00
34297;BME280;20564;42.902;25.336;2022-11-15T04:47:30;97774.63;;;7.58;100.00
34297;BME280;20564;42.902;25.336;2022-11-15T04:50:01;97758.38;;;7.53;100.00
34297;BME280;20564;42.902;25.336;2022-11-15T04:52:28;97765.06;;;7.57;100.00
34297;BME280;20564;42.902;25.336;2022-11-15T04:55:04;97760.56;;;7.59;100.00
34297;BME280;20564;42.902;25.336;2022-11-15T04:57:33;97767.25;;;7.63;100.00
34297;BME280;20564;42.902;25.336;2022-11-15T05:00:03;97766.31;;;7.64;100.00
34297;BME280;20564;42.902;25.336;2022-11-15T05:02:30;97764.13;;;7.58;100.00
34297;BME280;20564;42.902;25.336;2022-11-15T05:05:20;97763.94;;;7.61;100.00
34297;BME280;20564;42.902;25.336;2022-11-15T05:07:47;97766.75;;;7.58;100.00
34297;BME280;20564;42.902;25.336;2022-11-15T05:10:15;97763.94;;;7.61;100.00
34297;BME280;20564;42.902;25.336;2022-11-15T05:12:42;97756.50;;;7.55;100.00
34297;BME280;20564;42.902;25.336;2022-11-15T05:15:09;97761.09;;;7.51;100.00
34297;BME280;20564;42.902;25.336;2022-11-15T05:17:39;97769.59;;;7.42;100.00
34297;BME280;20564;42.902;25.336;2022-11-15T05:20:07;97768.88;;;7.40;100.00
34297;BME280;20564;42.902;25.336;2022-11-15T05:22:34;97774.00;;;7.41;100.00
34297;BME280;20564;42.902;25.336;2022-11-15T05:25:02;97774.94;;;7.40;100.00
34297;BME280;20564;42.902;25.336;2022-11-15T05:27:29;97771.69;;;7.37;100.00
34297;BME280;20564;42.902;25.336;2022-11-15T05:29:56;97768.66;;;7.30;100.00
34297;BME280;20564;42.902;25.336;2022-11-15T05:32:25;97771.19;;;7.32;100.00
34297;BME280;20564;42.902;25.336;2022-11-15T05:34:52;97766.25;;;7.40;100.00
34297;BME280;20564;42.902;25.336;2022-11-15T05:37:28;97768.25;;;7.36;100.00
34297;BME280;20564;42.902;25.336;2022-11-15T05:39:59;97766.78;;;7.32;100.00
34297;BME280;20564;42.902;25.336;2022-11-15T05:42:27;97771.81;;;7.35;100.00
34297;BME280;20564;42.902;25.336;2022-11-15T05:44:57;97775.16;;;7.37;100.00
34297;BME280;20564;42.902;25.336;2022-11-15T05:47:27;97776.81;;;7.38;100.00
34297;BME280;20564;42.902;25.336;2022-11-15T05:49:57;97776.81;;;7.38;100.00
34297;BME280;20564;42.902;25.336;2022-11-15T05:52:30;97778.72;;;7.36;100.00
34297;BME280;20564;42.902;25.336;2022-11-15T05:55:02;97778.72;;;7.36;100.00
34297;BME280;20564;42.902;25.336;2022-11-15T05:57:31;97776.09;;;7.36;100.00
34297;BME280;20564;42.902;25.336;2022-11-15T05:59:59;97784.69;;;7.38;100.00
34297;BME280;20564;42.902;25.336;2022-11-15T06:02:27;97784.25;;;7.44;100.00
34297;BME280;20564;42.902;25.336;2022-11-15T06:04:54;97785.72;;;7.48;100.00
34297;BME280;20564;42.902;25.336;2022-11-15T06:07:21;97788.34;;;7.48;100.00
34297;BME280;20564;42.902;25.336;2022-11-15T06:09:48;97790.97;;;7.48;100.00
34297;BME280;20564;42.902;25.336;2022-11-15T06:12:15;97789.09;;;7.51;100.00
34297;BME280;20564;42.902;25.336;2022-11-15T06:14:43;97790.03;;;7.49;100.00
34297;BME280;20564;42.902;25.336;2022-11-15T06:17:10;97789.16;;;7.49;100.00
34297;BME280;20564;42.902;25.336;2022-11-15T06:19:37;97785.72;;;7.48;100.00
34297;BME280;20564;42.902;25.336;2022-11-15T06:22:04;97796.00;;;7.52;100.00
34297;BME280;20564;42.902;25.336;2022-11-15T06:24:31;97792.94;;;7.58;100.00
34297;BME280;20564;42.902;25.336;2022-11-15T06:26:59;97787.91;;;7.55;100.00
34297;BME280;20564;42.902;25.336;2022-11-15T06:29:26;97779.31;;;7.53;100.00
34297;BME280;20564;42.902;25.336;2022-11-15T06:31:53;97785.09;;;7.58;100.00
34297;BME280;20564;42.902;25.336;2022-11-15T06:34:20;97785.59;;;7.63;100.00
34297;BME280;20564;42.902;25.336;2022-11-15T06:36:48;97784.44;;;7.67;100.00
34297;BME280;20564;42.902;25.336;2022-11-15T06:39:15;97788.50;;;7.71;100.00
34297;BME280;20564;42.902;25.336;2022-11-15T06:41:42;97788.31;;;7.74;100.00
34297;BME280;20564;42.902;25.336;2022-11-15T06:44:09;97790.22;;;7.72;100.00
34297;BME280;20564;42.902;25.336;2022-11-15T06:46:37;97787.88;;;7.80;100.00
34297;BME280;20564;42.902;25.336;2022-11-15T06:49:04;97783.34;;;7.82;100.00
34297;BME280;20564;42.902;25.336;2022-11-15T06:51:35;97779.06;;;7.81;100.00
34297;BME280;20564;42.902;25.336;2022-11-15T06:54:02;97778.78;;;7.73;100.00
34297;BME280;20564;42.902;25.336;2022-11-15T06:56:29;97783.91;;;7.74;100.00
34297;BME280;20564;42.902;25.336;2022-11-15T06:59:05;97778.78;;;7.73;100.00
34297;BME280;20564;42.902;25.336;2022-11-15T07:01:35;97783.19;;;7.72;100.00
34297;BME280;20564;42.902;25.336;2022-11-15T07:04:03;97771.13;;;7.70;100.00
34297;BME280;20564;42.902;25.336;2022-11-15T07:06:30;97770.50;;;7.66;100.00
34297;BME280;20564;42.902;25.336;2022-11-15T07:08:57;97768.09;;;7.63;100.00
34297;BME280;20564;42.902;25.336;2022-11-15T07:11:24;97775.75;;;7.66;100.00
34297;BME280;20564;42.902;25.336;2022-11-15T07:13:58;97778.91;;;7.71;100.00
34297;BME280;20564;42.902;25.336;2022-11-15T07:16:36;97767.13;;;7.77;100.00
34297;BME280;20564;42.902;25.336;2022-11-15T07:19:03;97770.25;;;7.82;100.00
34297;BME280;20564;42.902;25.336;2022-11-15T07:21:32;97770.09;;;7.72;100.00
34297;BME280;20564;42.902;25.336;2022-11-15T07:24:00;97763.06;;;7.73;100.00
34297;BME280;20564;42.902;25.336;2022-11-15T07:26:27;97772.78;;;7.84;100.00
34297;BME280;20564;42.902;25.336;2022-11-15T07:28:54;97768.66;;;7.92;100.00
34297;BME280;20564;42.902;25.336;2022-11-15T07:31:21;97767.72;;;7.93;100.00
34297;BME280;20564;42.902;25.336;2022-11-15T07:33:49;97753.06;;;7.91;100.00
34297;BME280;20564;42.902;25.336;2022-11-15T07:36:16;97750.16;;;7.83;100.00
34297;BME280;20564;42.902;25.336;2022-11-15T07:38:43;97752.03;;;7.81;100.00
34297;BME280;20564;42.902;25.336;2022-11-15T07:41:10;97761.88;;;7.77;100.00
34297;BME280;20564;42.902;25.336;2022-11-15T07:43:38;97756.94;;;7.85;100.00
34297;BME280;20564;42.902;25.336;2022-11-15T07:46:06;97758.28;;;7.91;100.00
34297;BME280;20564;42.902;25.336;2022-11-15T07:48:37;97759.25;;;7.90;100.00
34297;BME280;20564;42.902;25.336;2022-11-15T07:51:12;97748.44;;;7.94;100.00
34297;BME280;20564;42.902;25.336;2022-11-15T07:53:42;97746.84;;;7.92;100.00
34297;BME280;20564;42.902;25.336;2022-11-15T07:56:09;97749.25;;;7.95;100.00
34297;BME280;20564;42.902;25.336;2022-11-15T07:58:37;97743.47;;;8.03;100.00
34297;BME280;20564;42.902;25.336;2022-11-15T08:01:05;97745.13;;;8.04;100.00
34297;BME280;20564;42.902;25.336;2022-11-15T08:03:33;97753.00;;;8.04;100.00
34297;BME280;20564;42.902;25.336;2022-11-15T08:06:01;97745.06;;;7.92;100.00
34297;BME280;20564;42.902;25.336;2022-11-15T08:08:29;97748.16;;;7.86;100.00
34297;BME280;20564;42.902;25.336;2022-11-15T08:10:58;97746.91;;;7.79;100.00
34297;BME280;20564;42.902;25.336;2022-11-15T08:13:25;97748.66;;;7.79;100.00
34297;BME280;20564;42.902;25.336;2022-11-15T08:15:57;97748.16;;;7.86;100.00
34297;BME280;20564;42.902;25.336;2022-11-15T08:18:24;97741.53;;;7.93;100.00
34297;BME280;20564;42.902;25.336;2022-11-15T08:20:52;97740.72;;;8.04;100.00
34297;BME280;20564;42.902;25.336;2022-11-15T08:23:19;97742.56;;;8.15;100.00
34297;BME280;20564;42.902;25.336;2022-11-15T08:25:46;97737.63;;;8.23;100.00
34297;BME280;20564;42.902;25.336;2022-11-15T08:28:16;97740.72;;;8.28;100.00
34297;BME280;20564;42.902;25.336;2022-11-15T08:30:43;97729.06;;;8.32;100.00
34297;BME280;20564;42.902;25.336;2022-11-15T08:33:13;97732.09;;;8.39;100.00
34297;BME280;20564;42.902;25.336;2022-11-15T08:35:42;97730.09;;;8.42;100.00
34297;BME280;20564;42.902;25.336;2022-11-15T08:38:10;97724.44;;;8.36;100.00
34297;BME280;20564;42.902;25.336;2022-11-15T08:40:37;97722.44;;;8.39;100.00
34297;BME280;20564;42.902;25.336;2022-11-15T08:43:05;97721.78;;;8.49;100.00
34297;BME280;20564;42.902;25.336;2022-11-15T08:45:34;97706.31;;;8.57;100.00
34297;BME280;20564;42.902;25.336;2022-11-15T08:48:02;97711.31;;;8.60;100.00
34297;BME280;20564;42.902;25.336;2022-11-15T08:50:30;97701.53;;;8.62;100.00
34297;BME280;20564;42.902;25.336;2022-11-15T08:52:57;97696.88;;;8.65;100.00
34297;BME280;20564;42.902;25.336;2022-11-15T08:55:24;97688.91;;;8.56;100.00
34297;BME280;20564;42.902;25.336;2022-11-15T08:57:52;97692.44;;;8.55;100.00
34297;BME280;20564;42.902;25.336;2022-11-15T09:00:39;97685.66;;;8.52;100.00
34297;BME280;20564;42.902;25.336;2022-11-15T09:03:07;97683.13;;;8.51;100.00
34297;BME280;20564;42.902;25.336;2022-11-15T09:05:36;97678.59;;;8.41;100.00
34297;BME280;20564;42.902;25.336;2022-11-15T09:08:05;97673.34;;;8.41;100.00
34297;BME280;20564;42.902;25.336;2022-11-15T09:10:52;97667.41;;;8.51;100.00
34297;BME280;20564;42.902;25.336;2022-11-15T09:13:22;97663.47;;;8.45;100.00
34297;BME280;20564;42.902;25.336;2022-11-15T09:15:50;97659.06;;;8.57;100.00
34297;BME280;20564;42.902;25.336;2022-11-15T09:18:43;97660.75;;;8.69;100.00
34297;BME280;20564;42.902;25.336;2022-11-15T09:21:11;97656.00;;;8.63;100.00
34297;BME280;20564;42.902;25.336;2022-11-15T09:23:39;97651.78;;;8.49;100.00
34297;BME280;20564;42.902;25.336;2022-11-15T09:26:07;97646.19;;;8.54;100.00
34297;BME280;20564;42.902;25.336;2022-11-15T09:28:37;97642.13;;;8.61;100.00
34297;BME280;20564;42.902;25.336;2022-11-15T09:31:11;97635.00;;;8.63;100.00
34297;BME280;20564;42.902;25.336;2022-11-15T09:33:48;97632.72;;;8.69;100.00
34297;BME280;20564;42.902;25.336;2022-11-15T09:39:42;97635.03;;;8.85;99.54
34297;BME280;20564;42.902;25.336;2022-11-15T09:46:23;97619.00;;;8.88;100.00
34297;BME280;20564;42.902;25.336;2022-11-15T09:49:01;97615.53;;;8.99;100.00
34297;BME280;20564;42.902;25.336;2022-11-15T09:51:45;97600.16;;;9.06;100.00
34297;BME280;20564;42.902;25.336;2022-11-15T09:54:32;97615.44;;;9.12;100.00
34297;BME280;20564;42.902;25.336;2022-11-15T10:03:26;97586.91;;;9.07;100.00
34297;BME280;20564;42.902;25.336;2022-11-15T10:05:59;97592.50;;;9.14;100.00
34297;BME280;20564;42.902;25.336;2022-11-15T10:11:48;97582.25;;;9.11;100.00
34297;BME280;20564;42.902;25.336;2022-11-15T10:14:25;97583.94;;;9.12;100.00
34297;BME280;20564;42.902;25.336;2022-11-15T10:17:23;97572.69;;;9.21;100.00
34297;BME280;20564;42.902;25.336;2022-11-15T10:20:06;97572.69;;;9.21;99.76
34297;BME280;20564;42.902;25.336;2022-11-15T10:22:45;97572.69;;;9.21;100.00
34297;BME280;20564;42.902;25.336;2022-11-15T10:26:16;97568.13;;;9.34;100.00
34297;BME280;20564;42.902;25.336;2022-11-15T10:28:44;97552.34;;;9.34;100.00
34297;BME280;20564;42.902;25.336;2022-11-15T10:31:26;97550.31;;;9.38;99.75
34297;BME280;20564;42.902;25.336;2022-11-15T10:34:35;97544.03;;;9.29;99.47
34297;BME280;20564;42.902;25.336;2022-11-15T10:37:03;97540.78;;;9.37;100.00
34297;BME280;20564;42.902;25.336;2022-11-15T10:39:31;97537.31;;;9.36;99.34
34297;BME280;20564;42.902;25.336;2022-11-15T10:42:28;97537.53;;;9.45;99.98
34297;BME280;20564;42.902;25.336;2022-11-15T10:44:56;97525.19;;;9.56;98.10
34297;BME280;20564;42.902;25.336;2022-11-15T10:47:30;97536.53;;;9.57;98.53
34297;BME280;20564;42.902;25.336;2022-11-15T10:50:28;97531.94;;;9.70;98.53
34297;BME280;20564;42.902;25.336;2022-11-15T10:52:56;97534.31;;;9.73;98.81
34297;BME280;20564;42.902;25.336;2022-11-15T10:55:29;97524.00;;;9.81;97.26
34297;BME280;20564;42.902;25.336;2022-11-15T10:58:36;97524.31;;;9.88;97.61
34297;BME280;20564;42.902;25.336;2022-11-15T11:01:16;97522.97;;;9.94;97.54
34297;BME280;20564;42.902;25.336;2022-11-15T11:04:03;97527.72;;;10.00;97.93
34297;BME280;20564;42.902;25.336;2022-11-15T11:12:01;97522.09;;;10.25;97.04
34297;BME280;20564;42.902;25.336;2022-11-15T11:14:32;97523.00;;;10.35;96.81
34297;BME280;20564;42.902;25.336;2022-11-15T11:20:51;97514.78;;;10.59;94.71
34297;BME280;20564;42.902;25.336;2022-11-15T11:23:51;97511.19;;;10.60;93.44
34297;BME280;20564;42.902;25.336;2022-11-15T11:37:25;97501.75;;;10.58;89.93
34297;BME280;20564;42.902;25.336;2022-11-15T11:40:16;97502.03;;;10.55;92.71
34297;BME280;20564;42.902;25.336;2022-11-15T11:48:20;97495.94;;;10.54;92.73
34297;BME280;20564;42.902;25.336;2022-11-15T11:50:50;97496.50;;;10.58;92.87
34297;BME280;20564;42.902;25.336;2022-11-15T11:53:39;97482.09;;;10.62;90.08
34297;BME280;20564;42.902;25.336;2022-11-15T11:56:18;97486.66;;;10.60;91.20
34297;BME280;20564;42.902;25.336;2022-11-15T11:58:53;97482.59;;;10.46;90.68
34297;BME280;20564;42.902;25.336;2022-11-15T12:01:42;97469.66;;;10.33;91.44
34297;BME280;20564;42.902;25.336;2022-11-15T12:04:29;97469.78;;;10.32;92.33
34297;BME280;20564;42.902;25.336;2022-11-15T12:07:31;97466.75;;;10.36;93.37
34297;BME280;20564;42.902;25.336;2022-11-15T12:13:30;97463.88;;;10.49;90.83
34297;BME280;20564;42.902;25.336;2022-11-15T12:16:28;97459.75;;;10.47;91.12
34297;BME280;20564;42.902;25.336;2022-11-15T12:19:00;97452.22;;;10.32;91.57
34297;BME280;20564;42.902;25.336;2022-11-15T12:24:45;97441.44;;;10.45;94.12
34297;BME280;20564;42.902;25.336;2022-11-15T12:27:36;97438.13;;;10.53;93.14
34297;BME280;20564;42.902;25.336;2022-11-15T12:30:12;97435.09;;;10.48;92.03
34297;BME280;20564;42.902;25.336;2022-11-15T12:32:50;97425.53;;;10.47;92.77
34297;BME280;20564;42.902;25.336;2022-11-15T12:35:37;97431.78;;;10.46;93.17
34297;BME280;20564;42.902;25.336;2022-11-15T12:38:10;97429.66;;;10.40;93.42
34297;BME280;20564;42.902;25.336;2022-11-15T12:41:13;97429.16;;;10.46;93.60
34297;BME280;20564;42.902;25.336;2022-11-15T12:43:45;97414.44;;;10.53;93.96
34297;BME280;20564;42.902;25.336;2022-11-15T12:48:49;97417.56;;;10.77;92.38
34297;BME280;20564;42.902;25.336;2022-11-15T12:51:20;97414.25;;;10.85;90.25
34297;BME280;20564;42.902;25.336;2022-11-15T12:53:47;97403.72;;;10.75;89.59
34297;BME280;20564;42.902;25.336;2022-11-15T13:06:53;97384.56;;;10.63;91.02
34297;BME280;20564;42.902;25.336;2022-11-15T13:14:57;97395.66;;;10.67;92.74
34297;BME280;20564;42.902;25.336;2022-11-15T13:18:23;97382.38;;;10.69;91.32
34297;BME280;20564;42.902;25.336;2022-11-15T13:20:34;97371.53;;;10.62;91.06
34297;BME280;20564;42.902;25.336;2022-11-15T13:23:09;97380.97;;;10.65;92.07
34297;BME280;20564;42.902;25.336;2022-11-15T13:26:02;97375.97;;;10.71;92.03
34297;BME280;20564;42.902;25.336;2022-11-15T13:34:24;97358.78;;;10.67;91.88
34297;BME280;20564;42.902;25.336;2022-11-15T13:39:52;97355.75;;;10.62;92.66
34297;BME280;20564;42.902;25.336;2022-11-15T13:42:20;97357.84;;;10.68;92.92
34297;BME280;20564;42.902;25.336;2022-11-15T13:45:02;97342.47;;;10.73;92.09
34297;BME280;20564;42.902;25.336;2022-11-15T13:47:30;97354.09;;;10.71;91.22
34297;BME280;20564;42.902;25.336;2022-11-15T13:49:59;97352.28;;;10.71;92.60
34297;BME280;20564;42.902;25.336;2022-11-15T13:52:31;97348.16;;;10.69;92.01
34297;BME280;20564;42.902;25.336;2022-11-15T13:55:13;97343.56;;;10.61;91.82
34297;BME280;20564;42.902;25.336;2022-11-15T13:57:47;97343.84;;;10.58;93.54
34297;BME280;20564;42.902;25.336;2022-11-15T14:03:31;97346.47;;;10.58;94.03
34297;BME280;20564;42.902;25.336;2022-11-15T14:08:34;97343.97;;;10.47;93.60
34297;BME280;20564;42.902;25.336;2022-11-15T14:11:12;97345.19;;;10.43;93.26
34297;BME280;20564;42.902;25.336;2022-11-15T14:13:40;97341.19;;;10.38;93.60
34297;BME280;20564;42.902;25.336;2022-11-15T14:19:03;97338.63;;;10.27;94.25
34297;BME280;20564;42.902;25.336;2022-11-15T14:21:32;97345.41;;;10.20;94.80
34297;BME280;20564;42.902;25.336;2022-11-15T14:24:35;97339.56;;;10.17;95.75
34297;BME280;20564;42.902;25.336;2022-11-15T14:27:26;97343.69;;;10.09;96.20
34297;BME280;20564;42.902;25.336;2022-11-15T14:29:54;97353.91;;;10.03;96.40
34297;BME280;20564;42.902;25.336;2022-11-15T14:35:01;97344.84;;;9.86;96.33
34297;BME280;20564;42.902;25.336;2022-11-15T14:37:33;97340.56;;;9.85;96.82
34297;BME280;20564;42.902;25.336;2022-11-15T14:40:05;97346.28;;;9.69;97.01
34297;BME280;20564;42.902;25.336;2022-11-15T14:42:36;97341.16;;;9.68;97.55
34297;BME280;20564;42.902;25.336;2022-11-15T14:45:21;97345.41;;;9.59;97.54
34297;BME280;20564;42.902;25.336;2022-11-15T14:47:49;97335.41;;;9.53;98.18
34297;BME280;20564;42.902;25.336;2022-11-15T14:50:22;97338.81;;;9.44;98.44
34297;BME280;20564;42.902;25.336;2022-11-15T14:52:52;97331.78;;;9.44;99.75
34297;BME280;20564;42.902;25.336;2022-11-15T14:55:29;97343.09;;;9.45;99.85
34297;BME280;20564;42.902;25.336;2022-11-15T14:57:58;97332.13;;;9.39;99.83
34297;BME280;20564;42.902;25.336;2022-11-15T15:00:36;97331.19;;;9.40;99.22
34297;BME280;20564;42.902;25.336;2022-11-15T15:03:23;97340.00;;;9.39;100.00
34297;BME280;20564;42.902;25.336;2022-11-15T15:05:55;97343.44;;;9.30;99.58
34297;BME280;20564;42.902;25.336;2022-11-15T15:08:23;97335.47;;;9.21;99.81
34297;BME280;20564;42.902;25.336;2022-11-15T15:10:50;97330.88;;;9.13;100.00
34297;BME280;20564;42.902;25.336;2022-11-15T15:13:23;97332.53;;;9.14;100.00
34297;BME280;20564;42.902;25.336;2022-11-15T15:15:51;97331.84;;;9.12;100.00
34297;BME280;20564;42.902;25.336;2022-11-15T15:18:34;97337.34;;;9.09;100.00